sensor_id;sensor_type;location;lat;lon;timestamp;pressure;altitude;pressure_sealevel;temperature;humidity
13836;BME280;6988;52.614;13.500;2022-07-29T00:02:51;53866.06;;;-143.77;61.42
13836;BME280;6988;52.614;13.500;2022-07-29T00:07:43;53835.31;;;-143.77;61.60
13836;BME280;6988;52.614;13.500;2022-07-29T00:12:35;53884.53;;;-143.77;61.55
13836;BME280;6988;52.614;13.500;2022-07-29T00:17:28;53874.28;;;-143.77;62.08
13836;BME280;6988;52.614;13.500;2022-07-29T00:22:20;53853.75;;;-143.77;62.32
13836;BME280;6988;52.614;13.500;2022-07-29T00:27:12;53872.22;;;-143.77;62.55
13836;BME280;6988;52.614;13.500;2022-07-29T00:32:04;53888.63;;;-143.77;62.71
13836;BME280;6988;52.614;13.500;2022-07-29T00:36:57;53886.59;;;-143.77;63.20
13836;BME280;6988;52.614;13.500;2022-07-29T00:41:49;53894.78;;;-143.77;63.22
13836;BME280;6988;52.614;13.500;2022-07-29T00:46:41;53870.19;;;-143.77;63.67
13836;BME280;6988;52.614;13.500;2022-07-29T00:51:35;53888.63;;;-143.77;64.24
13836;BME280;6988;52.614;13.500;2022-07-29T00:56:30;53931.72;;;-143.77;64.09
13836;BME280;6988;52.614;13.500;2022-07-29T01:01:22;53861.97;;;-143.77;65.18
13836;BME280;6988;52.614;13.500;2022-07-29T01:06:15;53882.50;;;-143.77;65.02
13836;BME280;6988;52.614;13.500;2022-07-29T01:11:08;53880.44;;;-143.77;65.06
13836;BME280;6988;52.614;13.500;2022-07-29T01:16:24;53876.34;;;-143.77;65.83
13836;BME280;6988;52.614;13.500;2022-07-29T01:21:49;53868.13;;;-143.77;66.16
13836;BME280;6988;52.614;13.500;2022-07-29T01:26:47;53909.16;;;-143.77;66.58
13836;BME280;6988;52.614;13.500;2022-07-29T01:31:56;53898.91;;;-143.77;66.74
13836;BME280;6988;52.614;13.500;2022-07-29T01:36:59;53896.84;;;-143.77;66.84
13836;BME280;6988;52.614;13.500;2022-07-29T01:42:02;53966.59;;;-143.77;67.19
13836;BME280;6988;52.614;13.500;2022-07-29T01:47:05;53913.25;;;-143.77;67.41
13836;BME280;6988;52.614;13.500;2022-07-29T01:52:07;53921.47;;;-143.77;67.12
13836;BME280;6988;52.614;13.500;2022-07-29T01:57:01;53929.69;;;-143.77;67.60
13836;BME280;6988;52.614;13.500;2022-07-29T02:01:58;53946.09;;;-143.77;67.89
13836;BME280;6988;52.614;13.500;2022-07-29T02:06:53;53913.25;;;-143.77;68.18
13836;BME280;6988;52.614;13.500;2022-07-29T02:11:49;53896.84;;;-143.77;68.47
13836;BME280;6988;52.614;13.500;2022-07-29T02:16:45;53921.47;;;-143.77;68.75
13836;BME280;6988;52.614;13.500;2022-07-29T02:21:41;53925.56;;;-143.77;68.28
13836;BME280;6988;52.614;13.500;2022-07-29T02:26:35;53921.47;;;-143.77;68.70
13836;BME280;6988;52.614;13.500;2022-07-29T02:31:33;53964.56;;;-143.77;68.68
13836;BME280;6988;52.614;13.500;2022-07-29T02:36:26;53919.41;;;-143.77;68.92
13836;BME280;6988;52.614;13.500;2022-07-29T02:41:27;53903.00;;;-143.77;68.87
13836;BME280;6988;52.614;13.500;2022-07-29T02:46:26;53933.78;;;-143.77;69.51
13836;BME280;6988;52.614;13.500;2022-07-29T02:51:26;53950.19;;;-143.77;69.76
13836;BME280;6988;52.614;13.500;2022-07-29T02:56:27;53954.28;;;-143.77;69.43
13836;BME280;6988;52.614;13.500;2022-07-29T03:01:23;53919.41;;;-143.77;69.91
13836;BME280;6988;52.614;13.500;2022-07-29T03:06:17;53931.72;;;-143.77;69.98
13836;BME280;6988;52.614;13.500;2022-07-29T03:11:13;53946.09;;;-143.77;70.18
13836;BME280;6988;52.614;13.500;2022-07-29T03:16:09;53917.38;;;-143.77;70.41
13836;BME280;6988;52.614;13.500;2022-07-29T03:21:02;53937.88;;;-143.77;70.14
13836;BME280;6988;52.614;13.500;2022-07-29T03:25:55;53923.53;;;-143.77;70.16
13836;BME280;6988;52.614;13.500;2022-07-29T03:30:47;53950.19;;;-143.77;69.83
13836;BME280;6988;52.614;13.500;2022-07-29T03:35:40;53962.50;;;-143.77;69.05
13836;BME280;6988;52.614;13.500;2022-07-29T03:40:38;53913.25;;;-143.77;69.41
13836;BME280;6988;52.614;13.500;2022-07-29T03:45:33;53946.09;;;-143.77;69.34
13836;BME280;6988;52.614;13.500;2022-07-29T03:50:26;53937.88;;;-143.77;69.23
13836;BME280;6988;52.614;13.500;2022-07-29T03:55:20;53925.56;;;-143.77;69.04
13836;BME280;6988;52.614;13.500;2022-07-29T04:00:13;53917.38;;;-143.77;68.94
13836;BME280;6988;52.614;13.500;2022-07-29T04:05:12;53962.50;;;-143.77;68.77
13836;BME280;6988;52.614;13.500;2022-07-29T04:10:06;53935.84;;;-143.77;68.81
13836;BME280;6988;52.614;13.500;2022-07-29T04:14:59;53925.56;;;-143.77;68.84
13836;BME280;6988;52.614;13.500;2022-07-29T04:19:51;53917.38;;;-143.77;69.09
13836;BME280;6988;52.614;13.500;2022-07-29T04:24:43;53935.84;;;-143.77;68.74
13836;BME280;6988;52.614;13.500;2022-07-29T04:29:35;53929.69;;;-143.77;68.65
13836;BME280;6988;52.614;13.500;2022-07-29T04:34:28;53898.91;;;-143.77;68.27
13836;BME280;6988;52.614;13.500;2022-07-29T04:39:19;53880.44;;;-143.77;68.10
13836;BME280;6988;52.614;13.500;2022-07-29T04:44:11;53917.38;;;-143.77;68.18
13836;BME280;6988;52.614;13.500;2022-07-29T04:49:03;53884.53;;;-143.77;67.51
13836;BME280;6988;52.614;13.500;2022-07-29T04:53:56;53894.78;;;-143.77;67.27
13836;BME280;6988;52.614;13.500;2022-07-29T04:58:48;53896.84;;;-143.77;67.47
13836;BME280;6988;52.614;13.500;2022-07-29T05:03:40;53905.06;;;-143.77;67.21
13836;BME280;6988;52.614;13.500;2022-07-29T05:08:32;53909.16;;;-143.77;66.86
13836;BME280;6988;52.614;13.500;2022-07-29T05:13:25;53925.56;;;-143.77;66.65
13836;BME280;6988;52.614;13.500;2022-07-29T05:18:16;53892.75;;;-143.77;66.52
13836;BME280;6988;52.614;13.500;2022-07-29T05:23:08;53878.38;;;-143.77;66.19
13836;BME280;6988;52.614;13.500;2022-07-29T05:28:03;53853.75;;;-143.77;65.96
13836;BME280;6988;52.614;13.500;2022-07-29T05:32:56;53831.19;;;-143.77;65.38
13836;BME280;6988;52.614;13.500;2022-07-29T05:37:48;53806.56;;;-143.77;64.65
13836;BME280;6988;52.614;13.500;2022-07-29T05:42:40;53818.88;;;-143.77;63.55
13836;BME280;6988;52.614;13.500;2022-07-29T05:47:32;53802.47;;;-143.77;63.18
13836;BME280;6988;52.614;13.500;2022-07-29T05:52:26;53802.47;;;-143.77;62.81
13836;BME280;6988;52.614;13.500;2022-07-29T05:57:19;53775.81;;;-143.77;62.31
13836;BME280;6988;52.614;13.500;2022-07-29T06:02:11;53818.88;;;-143.77;62.31
13836;BME280;6988;52.614;13.500;2022-07-29T06:07:03;53804.53;;;-143.77;61.59
13836;BME280;6988;52.614;13.500;2022-07-29T06:11:56;53781.97;;;-143.77;61.62
13836;BME280;6988;52.614;13.500;2022-07-29T06:16:48;53765.53;;;-143.77;60.68
13836;BME280;6988;52.614;13.500;2022-07-29T06:21:41;53724.50;;;-143.77;60.52
13836;BME280;6988;52.614;13.500;2022-07-29T06:26:34;53751.19;;;-143.77;59.85
13836;BME280;6988;52.614;13.500;2022-07-29T06:31:27;53708.09;;;-143.77;59.57
13836;BME280;6988;52.614;13.500;2022-07-29T06:36:18;53708.09;;;-143.77;58.38
13836;BME280;6988;52.614;13.500;2022-07-29T06:41:10;53675.28;;;-143.77;57.35
13836;BME280;6988;52.614;13.500;2022-07-29T06:46:05;53669.13;;;-143.77;56.93
13836;BME280;6988;52.614;13.500;2022-07-29T06:50:59;53665.03;;;-143.77;55.74
13836;BME280;6988;52.614;13.500;2022-07-29T06:55:52;53671.19;;;-143.77;55.77
13836;BME280;6988;52.614;13.500;2022-07-29T07:00:44;53662.97;;;-143.77;55.12
13836;BME280;6988;52.614;13.500;2022-07-29T07:05:36;53652.72;;;-143.77;55.05
13836;BME280;6988;52.614;13.500;2022-07-29T07:10:29;53654.75;;;-143.77;54.68
13836;BME280;6988;52.614;13.500;2022-07-29T07:15:20;53613.72;;;-143.77;53.68
13836;BME280;6988;52.614;13.500;2022-07-29T07:20:12;53580.91;;;-143.77;52.23
13836;BME280;6988;52.614;13.500;2022-07-29T07:25:05;53564.50;;;-143.77;51.79
13836;BME280;6988;52.614;13.500;2022-07-29T07:29:58;53486.53;;;-143.77;51.35
13836;BME280;6988;52.614;13.500;2022-07-29T07:34:50;53355.25;;;-143.77;47.90
13836;BME280;6988;52.614;13.500;2022-07-29T07:39:42;53404.50;;;-143.77;45.97
13836;BME280;6988;52.614;13.500;2022-07-29T07:44:33;53383.97;;;-143.77;44.64
13836;BME280;6988;52.614;13.500;2022-07-29T07:49:26;53324.50;;;-143.77;44.73
13836;BME280;6988;52.614;13.500;2022-07-29T07:54:18;53281.41;;;-143.77;43.17
13836;BME280;6988;52.614;13.500;2022-07-29T07:59:10;53242.44;;;-143.77;42.33
13836;BME280;6988;52.614;13.500;2022-07-29T08:04:02;53187.06;;;-143.77;40.51
13836;BME280;6988;52.614;13.500;2022-07-29T08:08:55;53178.84;;;-143.77;40.33
13836;BME280;6988;52.614;13.500;2022-07-29T08:13:49;53166.53;;;-143.77;39.70
13836;BME280;6988;52.614;13.500;2022-07-29T08:18:43;53141.91;;;-143.77;37.76
13836;BME280;6988;52.614;13.500;2022-07-29T08:23:35;53123.47;;;-143.77;38.88
13836;BME280;6988;52.614;13.500;2022-07-29T08:28:31;53102.94;;;-143.77;38.33
13836;BME280;6988;52.614;13.500;2022-07-29T08:33:22;53096.78;;;-143.77;37.57
13836;BME280;6988;52.614;13.500;2022-07-29T08:38:14;53109.09;;;-143.77;36.50
13836;BME280;6988;52.614;13.500;2022-07-29T08:43:07;53043.47;;;-143.77;36.37
13836;BME280;6988;52.614;13.500;2022-07-29T08:48:00;53043.47;;;-143.77;35.60
13836;BME280;6988;52.614;13.500;2022-07-29T08:52:52;53117.31;;;-143.77;35.13
13836;BME280;6988;52.614;13.500;2022-07-29T08:57:45;53049.63;;;-143.77;36.54
13836;BME280;6988;52.614;13.500;2022-07-29T09:02:41;52975.78;;;-143.77;34.51
13836;BME280;6988;52.614;13.500;2022-07-29T09:07:39;53031.16;;;-143.77;34.21
13836;BME280;6988;52.614;13.500;2022-07-29T09:12:32;53166.53;;;-143.77;34.51
13836;BME280;6988;52.614;13.500;2022-07-29T09:17:40;53154.22;;;-143.77;34.90
13836;BME280;6988;52.614;13.500;2022-07-29T09:22:33;53084.50;;;-143.77;35.33
13836;BME280;6988;52.614;13.500;2022-07-29T09:27:26;52998.34;;;-143.77;34.65
13836;BME280;6988;52.614;13.500;2022-07-29T09:32:19;52955.25;;;-143.77;33.68
13836;BME280;6988;52.614;13.500;2022-07-29T09:37:10;52877.31;;;-143.77;33.27
13836;BME280;6988;52.614;13.500;2022-07-29T09:42:07;52867.06;;;-143.77;32.30
13836;BME280;6988;52.614;13.500;2022-07-29T09:47:03;52936.81;;;-143.77;32.29
13836;BME280;6988;52.614;13.500;2022-07-29T09:52:06;53031.16;;;-143.77;33.41
13836;BME280;6988;52.614;13.500;2022-07-29T09:56:58;53072.19;;;-143.77;33.06
13836;BME280;6988;52.614;13.500;2022-07-29T10:01:50;53137.81;;;-143.77;33.86
13836;BME280;6988;52.614;13.500;2022-07-29T10:06:58;53123.47;;;-143.77;33.87
13836;BME280;6988;52.614;13.500;2022-07-29T10:12:08;53158.34;;;-143.77;33.43
13836;BME280;6988;52.614;13.500;2022-07-29T10:17:02;53135.78;;;-143.77;33.73
13836;BME280;6988;52.614;13.500;2022-07-29T10:21:55;52996.28;;;-143.77;32.62
13836;BME280;6988;52.614;13.500;2022-07-29T10:26:48;52949.13;;;-143.77;31.71
13836;BME280;6988;52.614;13.500;2022-07-29T10:31:49;52924.50;;;-143.77;32.01
13836;BME280;6988;52.614;13.500;2022-07-29T10:37:00;52916.28;;;-143.77;32.16
13836;BME280;6988;52.614;13.500;2022-07-29T10:42:17;52961.41;;;-143.77;31.66
13836;BME280;6988;52.614;13.500;2022-07-29T10:47:20;52803.47;;;-143.77;31.45
13836;BME280;6988;52.614;13.500;2022-07-29T10:52:13;52871.16;;;-143.77;31.29
13836;BME280;6988;52.614;13.500;2022-07-29T10:57:13;52977.81;;;-143.77;31.47
13836;BME280;6988;52.614;13.500;2022-07-29T11:02:42;52912.19;;;-143.77;31.98
13836;BME280;6988;52.614;13.500;2022-07-29T11:07:38;52871.16;;;-143.77;31.34
13836;BME280;6988;52.614;13.500;2022-07-29T11:12:47;52867.06;;;-143.77;32.23
13836;BME280;6988;52.614;13.500;2022-07-29T11:18:07;52945.00;;;-143.77;31.41
13836;BME280;6988;52.614;13.500;2022-07-29T11:23:01;53006.53;;;-143.77;31.51
13836;BME280;6988;52.614;13.500;2022-07-29T11:27:54;52981.94;;;-143.77;32.17
13836;BME280;6988;52.614;13.500;2022-07-29T11:33:01;53082.44;;;-143.77;33.12
13836;BME280;6988;52.614;13.500;2022-07-29T11:38:25;52901.94;;;-143.77;33.09
13836;BME280;6988;52.614;13.500;2022-07-29T11:43:46;52785.03;;;-143.77;32.55
13836;BME280;6988;52.614;13.500;2022-07-29T11:48:42;52739.91;;;-143.77;31.39
13836;BME280;6988;52.614;13.500;2022-07-29T11:53:35;52739.91;;;-143.77;30.76
13836;BME280;6988;52.614;13.500;2022-07-29T11:58:28;52698.88;;;-143.77;31.61
13836;BME280;6988;52.614;13.500;2022-07-29T12:03:25;52682.47;;;-143.77;31.11
13836;BME280;6988;52.614;13.500;2022-07-29T12:08:20;52733.75;;;-143.77;31.14
13836;BME280;6988;52.614;13.500;2022-07-29T12:13:21;52744.00;;;-143.77;31.45
13836;BME280;6988;52.614;13.500;2022-07-29T12:18:17;52801.44;;;-143.77;31.79
13836;BME280;6988;52.614;13.500;2022-07-29T12:23:11;52735.81;;;-143.77;32.10
13836;BME280;6988;52.614;13.500;2022-07-29T12:28:07;52705.03;;;-143.77;31.78
13836;BME280;6988;52.614;13.500;2022-07-29T12:33:00;52764.50;;;-143.77;32.07
13836;BME280;6988;52.614;13.500;2022-07-29T12:37:52;52758.38;;;-143.77;32.58
13836;BME280;6988;52.614;13.500;2022-07-29T12:43:07;52830.16;;;-143.77;32.96
13836;BME280;6988;52.614;13.500;2022-07-29T12:48:01;52760.41;;;-143.77;33.40
13836;BME280;6988;52.614;13.500;2022-07-29T12:52:53;52776.81;;;-143.77;32.69
13836;BME280;6988;52.614;13.500;2022-07-29T12:57:46;52926.56;;;-143.77;33.40
13836;BME280;6988;52.614;13.500;2022-07-29T13:02:40;52922.44;;;-143.77;33.94
13836;BME280;6988;52.614;13.500;2022-07-29T13:07:35;52969.63;;;-143.77;33.66
13836;BME280;6988;52.614;13.500;2022-07-29T13:12:27;52973.72;;;-143.77;33.59
13836;BME280;6988;52.614;13.500;2022-07-29T13:17:20;52873.22;;;-143.77;34.39
13836;BME280;6988;52.614;13.500;2022-07-29T13:22:15;52891.69;;;-143.77;33.85
13836;BME280;6988;52.614;13.500;2022-07-29T13:27:08;52881.44;;;-143.77;33.89
13836;BME280;6988;52.614;13.500;2022-07-29T13:32:00;53014.75;;;-143.77;33.97
13836;BME280;6988;52.614;13.500;2022-07-29T13:36:52;52918.34;;;-143.77;34.50
13836;BME280;6988;52.614;13.500;2022-07-29T13:41:44;53041.41;;;-143.77;34.30
13836;BME280;6988;52.614;13.500;2022-07-29T13:46:37;53076.28;;;-143.77;35.03
13836;BME280;6988;52.614;13.500;2022-07-29T13:51:28;53012.69;;;-143.77;35.31
13836;BME280;6988;52.614;13.500;2022-07-29T13:56:20;52961.41;;;-143.77;35.13
13836;BME280;6988;52.614;13.500;2022-07-29T14:01:12;52983.97;;;-143.77;34.33
13836;BME280;6988;52.614;13.500;2022-07-29T14:06:05;52916.28;;;-143.77;34.14
13836;BME280;6988;52.614;13.500;2022-07-29T14:10:57;52904.00;;;-143.77;33.68
13836;BME280;6988;52.614;13.500;2022-07-29T14:15:48;52904.00;;;-143.77;33.50
13836;BME280;6988;52.614;13.500;2022-07-29T14:20:40;52920.41;;;-143.77;33.07
13836;BME280;6988;52.614;13.500;2022-07-29T14:25:33;52912.19;;;-143.77;33.29
13836;BME280;6988;52.614;13.500;2022-07-29T14:30:25;52957.31;;;-143.77;33.72
13836;BME280;6988;52.614;13.500;2022-07-29T14:35:17;52967.56;;;-143.77;34.41
13836;BME280;6988;52.614;13.500;2022-07-29T14:40:10;52959.38;;;-143.77;33.95
13836;BME280;6988;52.614;13.500;2022-07-29T14:45:05;52928.59;;;-143.77;32.92
13836;BME280;6988;52.614;13.500;2022-07-29T14:49:57;52949.13;;;-143.77;33.50
13836;BME280;6988;52.614;13.500;2022-07-29T14:54:49;52936.81;;;-143.77;33.50
13836;BME280;6988;52.614;13.500;2022-07-29T14:59:40;52936.81;;;-143.77;33.31
13836;BME280;6988;52.614;13.500;2022-07-29T15:04:33;52965.53;;;-143.77;34.23
13836;BME280;6988;52.614;13.500;2022-07-29T15:09:25;52990.13;;;-143.77;33.77
13836;BME280;6988;52.614;13.500;2022-07-29T15:14:17;52988.09;;;-143.77;34.08
13836;BME280;6988;52.614;13.500;2022-07-29T15:19:09;52979.88;;;-143.77;33.56
13836;BME280;6988;52.614;13.500;2022-07-29T15:24:03;52963.47;;;-143.77;34.31
13836;BME280;6988;52.614;13.500;2022-07-29T15:28:55;52969.63;;;-143.77;34.09
13836;BME280;6988;52.614;13.500;2022-07-29T15:33:47;52994.25;;;-143.77;33.89
13836;BME280;6988;52.614;13.500;2022-07-29T15:38:39;53072.19;;;-143.77;34.81
13836;BME280;6988;52.614;13.500;2022-07-29T15:43:32;53043.47;;;-143.77;34.63
13836;BME280;6988;52.614;13.500;2022-07-29T15:48:25;53027.06;;;-143.77;34.91
13836;BME280;6988;52.614;13.500;2022-07-29T15:53:16;53088.59;;;-143.77;34.39
13836;BME280;6988;52.614;13.500;2022-07-29T15:58:08;53020.91;;;-143.77;34.80
13836;BME280;6988;52.614;13.500;2022-07-29T16:03:01;52988.09;;;-143.77;34.66
13836;BME280;6988;52.614;13.500;2022-07-29T16:07:53;52994.25;;;-143.77;34.45
13836;BME280;6988;52.614;13.500;2022-07-29T16:12:45;53012.69;;;-143.77;34.58
13836;BME280;6988;52.614;13.500;2022-07-29T16:17:37;53051.66;;;-143.77;34.42
13836;BME280;6988;52.614;13.500;2022-07-29T16:22:31;53022.94;;;-143.77;34.73
13836;BME280;6988;52.614;13.500;2022-07-29T16:27:23;53076.28;;;-143.77;35.01
13836;BME280;6988;52.614;13.500;2022-07-29T16:32:17;53094.75;;;-143.77;34.67
13836;BME280;6988;52.614;13.500;2022-07-29T16:37:09;53082.44;;;-143.77;34.73
13836;BME280;6988;52.614;13.500;2022-07-29T16:42:03;53096.78;;;-143.77;35.24
13836;BME280;6988;52.614;13.500;2022-07-29T16:46:55;53123.47;;;-143.77;35.06
13836;BME280;6988;52.614;13.500;2022-07-29T16:51:47;53137.81;;;-143.77;35.40
13836;BME280;6988;52.614;13.500;2022-07-29T16:56:39;53127.56;;;-143.77;35.49
13836;BME280;6988;52.614;13.500;2022-07-29T17:01:32;53166.53;;;-143.77;35.72
13836;BME280;6988;52.614;13.500;2022-07-29T17:06:24;53172.69;;;-143.77;35.82
13836;BME280;6988;52.614;13.500;2022-07-29T17:11:16;53141.91;;;-143.77;36.02
13836;BME280;6988;52.614;13.500;2022-07-29T17:16:07;53148.06;;;-143.77;36.08
13836;BME280;6988;52.614;13.500;2022-07-29T17:21:01;53166.53;;;-143.77;36.16
13836;BME280;6988;52.614;13.500;2022-07-29T17:25:53;53158.34;;;-143.77;36.06
13836;BME280;6988;52.614;13.500;2022-07-29T17:30:45;53178.84;;;-143.77;36.22
13836;BME280;6988;52.614;13.500;2022-07-29T17:35:36;53189.09;;;-143.77;36.42
13836;BME280;6988;52.614;13.500;2022-07-29T17:40:47;53215.78;;;-143.77;35.97
13836;BME280;6988;52.614;13.500;2022-07-29T17:45:39;53213.72;;;-143.77;36.67
13836;BME280;6988;52.614;13.500;2022-07-29T17:50:31;53213.72;;;-143.77;36.50
13836;BME280;6988;52.614;13.500;2022-07-29T17:55:22;53226.03;;;-143.77;36.73
13836;BME280;6988;52.614;13.500;2022-07-29T18:00:16;53232.19;;;-143.77;37.00
13836;BME280;6988;52.614;13.500;2022-07-29T18:05:09;53250.63;;;-143.77;36.98
13836;BME280;6988;52.614;13.500;2022-07-29T18:10:00;53256.78;;;-143.77;37.80
13836;BME280;6988;52.614;13.500;2022-07-29T18:14:52;53265.00;;;-143.77;37.61
13836;BME280;6988;52.614;13.500;2022-07-29T18:19:45;53254.75;;;-143.77;37.48
13836;BME280;6988;52.614;13.500;2022-07-29T18:24:37;53262.94;;;-143.77;37.97
13836;BME280;6988;52.614;13.500;2022-07-29T18:29:29;53265.00;;;-143.77;38.12
13836;BME280;6988;52.614;13.500;2022-07-29T18:34:21;53277.31;;;-143.77;38.33
13836;BME280;6988;52.614;13.500;2022-07-29T18:39:14;53318.34;;;-143.77;38.13
13836;BME280;6988;52.614;13.500;2022-07-29T18:44:06;53318.34;;;-143.77;38.74
13836;BME280;6988;52.614;13.500;2022-07-29T18:48:59;53322.44;;;-143.77;38.91
13836;BME280;6988;52.614;13.500;2022-07-29T18:53:52;53363.47;;;-143.77;39.30
13836;BME280;6988;52.614;13.500;2022-07-29T18:58:45;53338.84;;;-143.77;39.50
13836;BME280;6988;52.614;13.500;2022-07-29T19:03:37;53338.84;;;-143.77;39.45
13836;BME280;6988;52.614;13.500;2022-07-29T19:08:29;53386.03;;;-143.77;40.04
13836;BME280;6988;52.614;13.500;2022-07-29T19:13:21;53359.34;;;-143.77;39.58
13836;BME280;6988;52.614;13.500;2022-07-29T19:18:14;53363.47;;;-143.77;40.20
13836;BME280;6988;52.614;13.500;2022-07-29T19:23:06;53379.88;;;-143.77;40.68
13836;BME280;6988;52.614;13.500;2022-07-29T19:27:59;53351.16;;;-143.77;40.59
13836;BME280;6988;52.614;13.500;2022-07-29T19:32:51;53406.53;;;-143.77;40.98
13836;BME280;6988;52.614;13.500;2022-07-29T19:37:44;53392.19;;;-143.77;41.16
13836;BME280;6988;52.614;13.500;2022-07-29T19:42:36;53412.69;;;-143.77;41.38
13836;BME280;6988;52.614;13.500;2022-07-29T19:47:28;53408.59;;;-143.77;41.26
13836;BME280;6988;52.614;13.500;2022-07-29T19:52:20;53437.31;;;-143.77;41.59
13836;BME280;6988;52.614;13.500;2022-07-29T19:57:13;53447.56;;;-143.77;41.51
13836;BME280;6988;52.614;13.500;2022-07-29T20:02:05;53441.41;;;-143.77;41.82
13836;BME280;6988;52.614;13.500;2022-07-29T20:07:00;53447.56;;;-143.77;41.77
13836;BME280;6988;52.614;13.500;2022-07-29T20:11:51;53437.31;;;-143.77;41.94
13836;BME280;6988;52.614;13.500;2022-07-29T20:16:45;53498.84;;;-143.77;42.25
13836;BME280;6988;52.614;13.500;2022-07-29T20:21:37;53433.22;;;-143.77;42.43
13836;BME280;6988;52.614;13.500;2022-07-29T20:26:29;53429.09;;;-143.77;42.51
13836;BME280;6988;52.614;13.500;2022-07-29T20:31:21;53433.22;;;-143.77;42.77
13836;BME280;6988;52.614;13.500;2022-07-29T20:36:15;53468.09;;;-143.77;42.90
13836;BME280;6988;52.614;13.500;2022-07-29T20:41:07;53457.81;;;-143.77;42.73
13836;BME280;6988;52.614;13.500;2022-07-29T20:45:59;53474.25;;;-143.77;42.69
13836;BME280;6988;52.614;13.500;2022-07-29T20:50:51;53459.88;;;-143.77;42.62
13836;BME280;6988;52.614;13.500;2022-07-29T20:55:45;53480.38;;;-143.77;42.69
13836;BME280;6988;52.614;13.500;2022-07-29T21:00:37;53490.66;;;-143.77;42.71
13836;BME280;6988;52.614;13.500;2022-07-29T21:05:29;53496.81;;;-143.77;42.96
13836;BME280;6988;52.614;13.500;2022-07-29T21:10:21;53470.13;;;-143.77;43.46
13836;BME280;6988;52.614;13.500;2022-07-29T21:15:14;53502.97;;;-143.77;43.73
13836;BME280;6988;52.614;13.500;2022-07-29T21:20:08;53482.44;;;-143.77;43.63
13836;BME280;6988;52.614;13.500;2022-07-29T21:25:02;53486.53;;;-143.77;43.09
13836;BME280;6988;52.614;13.500;2022-07-29T21:29:54;53519.38;;;-143.77;43.19
13836;BME280;6988;52.614;13.500;2022-07-29T21:34:47;53507.06;;;-143.77;43.22
13836;BME280;6988;52.614;13.500;2022-07-29T21:39:39;53498.84;;;-143.77;44.08
13836;BME280;6988;52.614;13.500;2022-07-29T21:44:30;53515.25;;;-143.77;44.00
13836;BME280;6988;52.614;13.500;2022-07-29T21:49:22;53527.56;;;-143.77;44.31
13836;BME280;6988;52.614;13.500;2022-07-29T21:54:15;53585.00;;;-143.77;44.42
13836;BME280;6988;52.614;13.500;2022-07-29T21:59:07;53539.88;;;-143.77;44.54
13836;BME280;6988;52.614;13.500;2022-07-29T22:03:59;53550.13;;;-143.77;44.54
13836;BME280;6988;52.614;13.500;2022-07-29T22:08:51;53548.09;;;-143.77;44.89
13836;BME280;6988;52.614;13.500;2022-07-29T22:13:44;53519.38;;;-143.77;44.86
13836;BME280;6988;52.614;13.500;2022-07-29T22:18:35;53539.88;;;-143.77;45.21
13836;BME280;6988;52.614;13.500;2022-07-29T22:23:27;53550.13;;;-143.77;45.25
13836;BME280;6988;52.614;13.500;2022-07-29T22:28:19;53543.97;;;-143.77;45.36
13836;BME280;6988;52.614;13.500;2022-07-29T22:33:12;53543.97;;;-143.77;44.91
13836;BME280;6988;52.614;13.500;2022-07-29T22:38:04;53564.50;;;-143.77;44.87
13836;BME280;6988;52.614;13.500;2022-07-29T22:42:56;53556.28;;;-143.77;44.92
13836;BME280;6988;52.614;13.500;2022-07-29T22:47:47;53550.13;;;-143.77;44.90
13836;BME280;6988;52.614;13.500;2022-07-29T22:52:40;53582.97;;;-143.77;44.89
13836;BME280;6988;52.614;13.500;2022-07-29T22:57:32;53537.84;;;-143.77;45.15
13836;BME280;6988;52.614;13.500;2022-07-29T23:02:24;53568.59;;;-143.77;44.82
13836;BME280;6988;52.614;13.500;2022-07-29T23:07:15;53568.59;;;-143.77;44.93
13836;BME280;6988;52.614;13.500;2022-07-29T23:12:09;53531.69;;;-143.77;44.98
13836;BME280;6988;52.614;13.500;2022-07-29T23:17:00;53576.81;;;-143.77;45.30
13836;BME280;6988;52.614;13.500;2022-07-29T23:21:52;53578.84;;;-143.77;45.00
13836;BME280;6988;52.614;13.500;2022-07-29T23:26:44;53529.63;;;-143.77;44.91
13836;BME280;6988;52.614;13.500;2022-07-29T23:31:37;53548.09;;;-143.77;44.87
13836;BME280;6988;52.614;13.500;2022-07-29T23:36:29;53558.34;;;-143.77;45.27
13836;BME280;6988;52.614;13.500;2022-07-29T23:41:21;53574.75;;;-143.77;45.07
13836;BME280;6988;52.614;13.500;2022-07-29T23:46:13;53572.72;;;-143.77;45.52
13836;BME280;6988;52.614;13.500;2022-07-29T23:51:06;53546.03;;;-143.77;45.84
13836;BME280;6988;52.614;13.500;2022-07-29T23:55:58;53589.13;;;-143.77;45.82
